sensor_id;sensor_type;location;lat;lon;timestamp;P1;durP1;ratioP1;P2;durP2;ratioP2
38615;SDS011;24370;51.986;4.666;2022-07-06T00:02:19;2.55;;;0.82;;
38615;SDS011;24370;51.986;4.666;2022-07-06T00:04:44;1.80;;;0.73;;
38615;SDS011;24370;51.986;4.666;2022-07-06T00:07:10;1.85;;;0.80;;
38615;SDS011;24370;51.986;4.666;2022-07-06T00:09:35;3.53;;;0.80;;
38615;SDS011;24370;51.986;4.666;2022-07-06T00:12:00;1.15;;;0.70;;
38615;SDS011;24370;51.986;4.666;2022-07-06T00:14:26;3.42;;;0.90;;
38615;SDS011;24370;51.986;4.666;2022-07-06T00:16:51;5.53;;;1.92;;
38615;SDS011;24370;51.986;4.666;2022-07-06T00:19:17;2.38;;;0.70;;
38615;SDS011;24370;51.986;4.666;2022-07-06T00:21:42;1.67;;;0.73;;
38615;SDS011;24370;51.986;4.666;2022-07-06T00:24:07;6.22;;;1.00;;
38615;SDS011;24370;51.986;4.666;2022-07-06T00:26:33;1.38;;;0.82;;
38615;SDS011;24370;51.986;4.666;2022-07-06T00:28:58;3.42;;;1.15;;
38615;SDS011;24370;51.986;4.666;2022-07-06T00:31:24;2.10;;;0.88;;
38615;SDS011;24370;51.986;4.666;2022-07-06T00:33:49;5.53;;;1.02;;
38615;SDS011;24370;51.986;4.666;2022-07-06T00:36:15;1.25;;;1.02;;
38615;SDS011;24370;51.986;4.666;2022-07-06T00:38:40;2.97;;;1.13;;
38615;SDS011;24370;51.986;4.666;2022-07-06T00:41:06;2.13;;;1.00;;
38615;SDS011;24370;51.986;4.666;2022-07-06T00:43:47;3.50;;;1.13;;
38615;SDS011;24370;51.986;4.666;2022-07-06T00:46:14;2.72;;;0.85;;
38615;SDS011;24370;51.986;4.666;2022-07-06T00:48:39;3.03;;;1.15;;
38615;SDS011;24370;51.986;4.666;2022-07-06T00:51:04;1.48;;;1.00;;
38615;SDS011;24370;51.986;4.666;2022-07-06T00:53:30;5.55;;;0.98;;
38615;SDS011;24370;51.986;4.666;2022-07-06T00:55:55;3.47;;;0.95;;
38615;SDS011;24370;51.986;4.666;2022-07-06T00:58:21;2.10;;;1.15;;
38615;SDS011;24370;51.986;4.666;2022-07-06T01:00:46;2.42;;;0.90;;
38615;SDS011;24370;51.986;4.666;2022-07-06T01:03:12;4.20;;;0.77;;
38615;SDS011;24370;51.986;4.666;2022-07-06T01:05:37;1.60;;;0.68;;
38615;SDS011;24370;51.986;4.666;2022-07-06T01:08:02;2.30;;;1.00;;
38615;SDS011;24370;51.986;4.666;2022-07-06T01:10:28;5.63;;;0.90;;
38615;SDS011;24370;51.986;4.666;2022-07-06T01:12:53;1.95;;;0.60;;
38615;SDS011;24370;51.986;4.666;2022-07-06T01:15:22;2.05;;;0.80;;
38615;SDS011;24370;51.986;4.666;2022-07-06T01:17:48;2.47;;;1.00;;
38615;SDS011;24370;51.986;4.666;2022-07-06T01:22:51;3.45;;;0.88;;
38615;SDS011;24370;51.986;4.666;2022-07-06T01:25:17;6.05;;;1.55;;
38615;SDS011;24370;51.986;4.666;2022-07-06T01:27:44;1.83;;;0.93;;
38615;SDS011;24370;51.986;4.666;2022-07-06T01:30:17;3.35;;;0.90;;
38615;SDS011;24370;51.986;4.666;2022-07-06T01:32:44;2.63;;;0.90;;
38615;SDS011;24370;51.986;4.666;2022-07-06T01:35:11;2.83;;;1.20;;
38615;SDS011;24370;51.986;4.666;2022-07-06T01:37:37;2.67;;;0.80;;
38615;SDS011;24370;51.986;4.666;2022-07-06T01:40:04;4.30;;;0.88;;
38615;SDS011;24370;51.986;4.666;2022-07-06T01:42:31;3.97;;;1.15;;
38615;SDS011;24370;51.986;4.666;2022-07-06T01:44:56;2.15;;;0.80;;
38615;SDS011;24370;51.986;4.666;2022-07-06T01:47:22;3.33;;;0.90;;
38615;SDS011;24370;51.986;4.666;2022-07-06T01:49:48;3.25;;;0.82;;
38615;SDS011;24370;51.986;4.666;2022-07-06T01:52:14;4.47;;;0.90;;
38615;SDS011;24370;51.986;4.666;2022-07-06T01:54:40;2.38;;;0.82;;
38615;SDS011;24370;51.986;4.666;2022-07-06T01:57:05;5.15;;;0.85;;
38615;SDS011;24370;51.986;4.666;2022-07-06T01:59:31;1.90;;;0.70;;
38615;SDS011;24370;51.986;4.666;2022-07-06T02:01:56;1.67;;;0.68;;
38615;SDS011;24370;51.986;4.666;2022-07-06T02:04:21;3.08;;;0.80;;
38615;SDS011;24370;51.986;4.666;2022-07-06T02:06:47;1.42;;;0.80;;
38615;SDS011;24370;51.986;4.666;2022-07-06T02:09:12;2.28;;;0.75;;
38615;SDS011;24370;51.986;4.666;2022-07-06T02:11:38;3.65;;;0.95;;
38615;SDS011;24370;51.986;4.666;2022-07-06T02:14:03;2.78;;;0.80;;
38615;SDS011;24370;51.986;4.666;2022-07-06T02:16:29;4.43;;;0.90;;
38615;SDS011;24370;51.986;4.666;2022-07-06T02:18:54;1.83;;;0.90;;
38615;SDS011;24370;51.986;4.666;2022-07-06T02:21:19;2.53;;;0.70;;
38615;SDS011;24370;51.986;4.666;2022-07-06T02:23:45;2.38;;;0.85;;
38615;SDS011;24370;51.986;4.666;2022-07-06T02:26:10;3.45;;;0.70;;
38615;SDS011;24370;51.986;4.666;2022-07-06T02:28:35;2.88;;;0.70;;
38615;SDS011;24370;51.986;4.666;2022-07-06T02:31:01;2.88;;;0.77;;
38615;SDS011;24370;51.986;4.666;2022-07-06T02:33:26;1.25;;;0.73;;
38615;SDS011;24370;51.986;4.666;2022-07-06T02:35:51;1.88;;;0.80;;
38615;SDS011;24370;51.986;4.666;2022-07-06T02:38:17;5.47;;;0.68;;
38615;SDS011;24370;51.986;4.666;2022-07-06T02:40:42;3.00;;;0.60;;
38615;SDS011;24370;51.986;4.666;2022-07-06T02:43:07;2.47;;;0.60;;
38615;SDS011;24370;51.986;4.666;2022-07-06T02:45:33;4.72;;;0.90;;
38615;SDS011;24370;51.986;4.666;2022-07-06T02:47:58;2.00;;;0.77;;
38615;SDS011;24370;51.986;4.666;2022-07-06T02:50:24;4.68;;;1.17;;
38615;SDS011;24370;51.986;4.666;2022-07-06T02:52:50;2.78;;;0.90;;
38615;SDS011;24370;51.986;4.666;2022-07-06T02:55:15;1.35;;;1.08;;
38615;SDS011;24370;51.986;4.666;2022-07-06T02:57:41;2.70;;;0.90;;
38615;SDS011;24370;51.986;4.666;2022-07-06T03:00:07;1.48;;;0.70;;
38615;SDS011;24370;51.986;4.666;2022-07-06T03:02:34;4.80;;;1.00;;
38615;SDS011;24370;51.986;4.666;2022-07-06T03:05:00;4.72;;;1.73;;
38615;SDS011;24370;51.986;4.666;2022-07-06T03:07:25;1.80;;;0.70;;
38615;SDS011;24370;51.986;4.666;2022-07-06T03:09:50;3.38;;;0.85;;
38615;SDS011;24370;51.986;4.666;2022-07-06T03:12:16;7.15;;;1.05;;
38615;SDS011;24370;51.986;4.666;2022-07-06T03:14:41;3.80;;;0.82;;
38615;SDS011;24370;51.986;4.666;2022-07-06T03:17:07;2.83;;;1.38;;
38615;SDS011;24370;51.986;4.666;2022-07-06T03:19:33;10.77;;;1.25;;
38615;SDS011;24370;51.986;4.666;2022-07-06T03:21:58;3.85;;;0.98;;
38615;SDS011;24370;51.986;4.666;2022-07-06T03:24:24;10.52;;;1.98;;
38615;SDS011;24370;51.986;4.666;2022-07-06T03:26:49;3.53;;;0.90;;
38615;SDS011;24370;51.986;4.666;2022-07-06T03:29:14;1.30;;;0.63;;
38615;SDS011;24370;51.986;4.666;2022-07-06T03:31:39;1.30;;;0.70;;
38615;SDS011;24370;51.986;4.666;2022-07-06T03:34:05;0.70;;;0.50;;
38615;SDS011;24370;51.986;4.666;2022-07-06T03:36:31;2.13;;;0.60;;
38615;SDS011;24370;51.986;4.666;2022-07-06T03:38:56;4.78;;;0.73;;
38615;SDS011;24370;51.986;4.666;2022-07-06T03:41:21;2.50;;;0.75;;
38615;SDS011;24370;51.986;4.666;2022-07-06T03:43:47;1.08;;;0.60;;
38615;SDS011;24370;51.986;4.666;2022-07-06T03:46:12;3.22;;;1.02;;
38615;SDS011;24370;51.986;4.666;2022-07-06T03:48:37;3.45;;;0.60;;
38615;SDS011;24370;51.986;4.666;2022-07-06T03:51:03;1.35;;;0.70;;
38615;SDS011;24370;51.986;4.666;2022-07-06T03:53:28;3.92;;;1.55;;
38615;SDS011;24370;51.986;4.666;2022-07-06T03:55:53;2.13;;;0.65;;
38615;SDS011;24370;51.986;4.666;2022-07-06T03:58:37;0.68;;;0.55;;
38615;SDS011;24370;51.986;4.666;2022-07-06T04:01:03;3.35;;;1.60;;
38615;SDS011;24370;51.986;4.666;2022-07-06T04:03:28;1.98;;;0.70;;
38615;SDS011;24370;51.986;4.666;2022-07-06T04:05:53;1.90;;;0.60;;
38615;SDS011;24370;51.986;4.666;2022-07-06T04:08:19;2.45;;;0.68;;
38615;SDS011;24370;51.986;4.666;2022-07-06T04:10:44;3.53;;;0.75;;
38615;SDS011;24370;51.986;4.666;2022-07-06T04:13:10;1.85;;;0.60;;
38615;SDS011;24370;51.986;4.666;2022-07-06T04:15:35;7.78;;;0.82;;
38615;SDS011;24370;51.986;4.666;2022-07-06T04:18:01;2.38;;;0.88;;
38615;SDS011;24370;51.986;4.666;2022-07-06T04:20:26;1.90;;;0.63;;
38615;SDS011;24370;51.986;4.666;2022-07-06T04:22:52;2.30;;;0.70;;
38615;SDS011;24370;51.986;4.666;2022-07-06T04:25:17;4.15;;;0.63;;
38615;SDS011;24370;51.986;4.666;2022-07-06T04:27:43;0.93;;;0.60;;
38615;SDS011;24370;51.986;4.666;2022-07-06T04:30:09;2.28;;;1.35;;
38615;SDS011;24370;51.986;4.666;2022-07-06T04:32:36;2.05;;;0.90;;
38615;SDS011;24370;51.986;4.666;2022-07-06T04:35:01;2.42;;;0.68;;
38615;SDS011;24370;51.986;4.666;2022-07-06T04:37:27;2.25;;;0.68;;
38615;SDS011;24370;51.986;4.666;2022-07-06T04:39:53;4.10;;;0.90;;
38615;SDS011;24370;51.986;4.666;2022-07-06T04:42:18;3.22;;;0.70;;
38615;SDS011;24370;51.986;4.666;2022-07-06T04:44:44;1.85;;;0.70;;
38615;SDS011;24370;51.986;4.666;2022-07-06T04:47:10;1.92;;;0.90;;
38615;SDS011;24370;51.986;4.666;2022-07-06T04:49:36;3.80;;;0.70;;
38615;SDS011;24370;51.986;4.666;2022-07-06T04:52:01;2.00;;;0.80;;
38615;SDS011;24370;51.986;4.666;2022-07-06T04:54:27;0.95;;;0.60;;
38615;SDS011;24370;51.986;4.666;2022-07-06T04:56:52;4.60;;;1.10;;
38615;SDS011;24370;51.986;4.666;2022-07-06T04:59:17;1.65;;;0.75;;
38615;SDS011;24370;51.986;4.666;2022-07-06T05:01:43;3.70;;;0.77;;
38615;SDS011;24370;51.986;4.666;2022-07-06T05:04:08;2.40;;;0.70;;
38615;SDS011;24370;51.986;4.666;2022-07-06T05:06:34;5.00;;;0.70;;
38615;SDS011;24370;51.986;4.666;2022-07-06T05:08:59;2.03;;;0.68;;
38615;SDS011;24370;51.986;4.666;2022-07-06T05:11:25;2.17;;;0.88;;
38615;SDS011;24370;51.986;4.666;2022-07-06T05:13:51;4.43;;;1.40;;
38615;SDS011;24370;51.986;4.666;2022-07-06T05:16:17;1.50;;;0.70;;
38615;SDS011;24370;51.986;4.666;2022-07-06T05:18:42;1.55;;;0.85;;
38615;SDS011;24370;51.986;4.666;2022-07-06T05:21:07;1.67;;;0.90;;
38615;SDS011;24370;51.986;4.666;2022-07-06T05:23:33;1.77;;;0.90;;
38615;SDS011;24370;51.986;4.666;2022-07-06T05:25:58;1.05;;;0.63;;
38615;SDS011;24370;51.986;4.666;2022-07-06T05:28:24;0.95;;;0.77;;
38615;SDS011;24370;51.986;4.666;2022-07-06T05:30:49;2.13;;;0.68;;
38615;SDS011;24370;51.986;4.666;2022-07-06T05:33:14;2.05;;;0.70;;
38615;SDS011;24370;51.986;4.666;2022-07-06T05:35:40;1.60;;;0.60;;
38615;SDS011;24370;51.986;4.666;2022-07-06T05:38:05;1.95;;;0.50;;
38615;SDS011;24370;51.986;4.666;2022-07-06T05:40:30;1.05;;;0.75;;
38615;SDS011;24370;51.986;4.666;2022-07-06T05:42:56;1.25;;;0.57;;
38615;SDS011;24370;51.986;4.666;2022-07-06T05:45:21;1.05;;;0.70;;
38615;SDS011;24370;51.986;4.666;2022-07-06T05:47:47;1.15;;;0.70;;
38615;SDS011;24370;51.986;4.666;2022-07-06T05:50:31;1.08;;;0.60;;
38615;SDS011;24370;51.986;4.666;2022-07-06T05:53:01;5.50;;;0.90;;
38615;SDS011;24370;51.986;4.666;2022-07-06T05:55:28;4.18;;;0.60;;
38615;SDS011;24370;51.986;4.666;2022-07-06T05:57:54;1.08;;;0.70;;
38615;SDS011;24370;51.986;4.666;2022-07-06T06:00:20;2.15;;;1.20;;
38615;SDS011;24370;51.986;4.666;2022-07-06T06:02:47;4.45;;;0.60;;
38615;SDS011;24370;51.986;4.666;2022-07-06T06:05:13;2.47;;;0.63;;
38615;SDS011;24370;51.986;4.666;2022-07-06T06:07:39;1.33;;;0.60;;
38615;SDS011;24370;51.986;4.666;2022-07-06T06:10:12;2.05;;;0.55;;
38615;SDS011;24370;51.986;4.666;2022-07-06T06:15:04;1.00;;;0.50;;
38615;SDS011;24370;51.986;4.666;2022-07-06T06:17:30;0.90;;;0.47;;
38615;SDS011;24370;51.986;4.666;2022-07-06T06:19:55;1.02;;;0.50;;
38615;SDS011;24370;51.986;4.666;2022-07-06T06:22:21;1.38;;;0.57;;
38615;SDS011;24370;51.986;4.666;2022-07-06T06:24:47;7.78;;;0.55;;
38615;SDS011;24370;51.986;4.666;2022-07-06T06:27:12;1.23;;;0.40;;
38615;SDS011;24370;51.986;4.666;2022-07-06T06:29:38;1.20;;;0.45;;
38615;SDS011;24370;51.986;4.666;2022-07-06T06:32:03;1.33;;;0.50;;
38615;SDS011;24370;51.986;4.666;2022-07-06T06:34:30;0.20;;;0.20;;
38615;SDS011;24370;51.986;4.666;2022-07-06T06:36:56;4.40;;;0.60;;
38615;SDS011;24370;51.986;4.666;2022-07-06T06:39:21;0.55;;;0.30;;
38615;SDS011;24370;51.986;4.666;2022-07-06T06:41:46;1.27;;;0.50;;
38615;SDS011;24370;51.986;4.666;2022-07-06T06:44:12;1.10;;;0.30;;
38615;SDS011;24370;51.986;4.666;2022-07-06T06:46:37;0.90;;;0.35;;
38615;SDS011;24370;51.986;4.666;2022-07-06T06:49:03;1.58;;;0.47;;
38615;SDS011;24370;51.986;4.666;2022-07-06T06:51:28;3.90;;;0.30;;
38615;SDS011;24370;51.986;4.666;2022-07-06T06:53:54;2.78;;;0.40;;
38615;SDS011;24370;51.986;4.666;2022-07-06T06:56:19;0.10;;;0.10;;
38615;SDS011;24370;51.986;4.666;2022-07-06T06:58:44;3.30;;;0.43;;
38615;SDS011;24370;51.986;4.666;2022-07-06T07:01:10;2.08;;;0.40;;
38615;SDS011;24370;51.986;4.666;2022-07-06T07:03:35;1.90;;;0.40;;
38615;SDS011;24370;51.986;4.666;2022-07-06T07:06:00;1.35;;;0.20;;
38615;SDS011;24370;51.986;4.666;2022-07-06T07:08:26;0.45;;;0.45;;
38615;SDS011;24370;51.986;4.666;2022-07-06T07:10:51;1.75;;;0.38;;
38615;SDS011;24370;51.986;4.666;2022-07-06T07:13:17;0.38;;;0.28;;
38615;SDS011;24370;51.986;4.666;2022-07-06T07:15:42;1.98;;;0.52;;
38615;SDS011;24370;51.986;4.666;2022-07-06T07:18:08;0.73;;;0.38;;
38615;SDS011;24370;51.986;4.666;2022-07-06T07:20:33;0.95;;;0.30;;
38615;SDS011;24370;51.986;4.666;2022-07-06T07:22:59;0.30;;;0.30;;
38615;SDS011;24370;51.986;4.666;2022-07-06T07:25:25;1.63;;;0.38;;
38615;SDS011;24370;51.986;4.666;2022-07-06T07:27:51;0.47;;;0.40;;
38615;SDS011;24370;51.986;4.666;2022-07-06T07:30:16;0.68;;;0.20;;
38615;SDS011;24370;51.986;4.666;2022-07-06T07:32:41;0.85;;;0.20;;
38615;SDS011;24370;51.986;4.666;2022-07-06T07:35:07;1.23;;;0.20;;
38615;SDS011;24370;51.986;4.666;2022-07-06T07:37:33;0.35;;;0.15;;
38615;SDS011;24370;51.986;4.666;2022-07-06T07:39:58;1.00;;;0.30;;
38615;SDS011;24370;51.986;4.666;2022-07-06T07:42:24;0.60;;;0.30;;
38615;SDS011;24370;51.986;4.666;2022-07-06T07:44:49;1.55;;;0.30;;
38615;SDS011;24370;51.986;4.666;2022-07-06T07:47:15;0.88;;;0.20;;
38615;SDS011;24370;51.986;4.666;2022-07-06T07:49:41;0.93;;;0.50;;
38615;SDS011;24370;51.986;4.666;2022-07-06T07:52:07;0.20;;;0.20;;
38615;SDS011;24370;51.986;4.666;2022-07-06T07:54:33;1.70;;;0.17;;
38615;SDS011;24370;51.986;4.666;2022-07-06T07:56:58;1.65;;;0.30;;
38615;SDS011;24370;51.986;4.666;2022-07-06T07:59:24;0.80;;;0.30;;
38615;SDS011;24370;51.986;4.666;2022-07-06T08:01:49;1.52;;;0.40;;
38615;SDS011;24370;51.986;4.666;2022-07-06T08:04:15;1.25;;;0.60;;
38615;SDS011;24370;51.986;4.666;2022-07-06T08:06:40;2.33;;;0.40;;
38615;SDS011;24370;51.986;4.666;2022-07-06T08:09:06;1.10;;;0.70;;
38615;SDS011;24370;51.986;4.666;2022-07-06T08:11:33;1.20;;;0.22;;
38615;SDS011;24370;51.986;4.666;2022-07-06T08:13:59;3.50;;;1.10;;
38615;SDS011;24370;51.986;4.666;2022-07-06T08:16:25;1.13;;;0.20;;
38615;SDS011;24370;51.986;4.666;2022-07-06T08:18:50;1.50;;;0.68;;
38615;SDS011;24370;51.986;4.666;2022-07-06T08:21:16;5.07;;;0.40;;
38615;SDS011;24370;51.986;4.666;2022-07-06T08:23:41;0.80;;;0.20;;
38615;SDS011;24370;51.986;4.666;2022-07-06T08:26:06;2.70;;;0.57;;
38615;SDS011;24370;51.986;4.666;2022-07-06T08:28:32;1.17;;;0.30;;
38615;SDS011;24370;51.986;4.666;2022-07-06T08:30:57;1.25;;;0.30;;
38615;SDS011;24370;51.986;4.666;2022-07-06T08:33:22;0.20;;;0.20;;
38615;SDS011;24370;51.986;4.666;2022-07-06T08:35:48;0.65;;;0.30;;
38615;SDS011;24370;51.986;4.666;2022-07-06T08:38:14;1.00;;;0.10;;
38615;SDS011;24370;51.986;4.666;2022-07-06T08:40:40;0.40;;;0.20;;
38615;SDS011;24370;51.986;4.666;2022-07-06T08:43:06;0.82;;;0.17;;
38615;SDS011;24370;51.986;4.666;2022-07-06T08:45:32;2.58;;;0.30;;
38615;SDS011;24370;51.986;4.666;2022-07-06T08:48:03;0.30;;;0.10;;
38615;SDS011;24370;51.986;4.666;2022-07-06T08:50:30;0.20;;;0.20;;
38615;SDS011;24370;51.986;4.666;2022-07-06T08:52:55;2.65;;;0.30;;
38615;SDS011;24370;51.986;4.666;2022-07-06T08:55:21;1.50;;;0.15;;
38615;SDS011;24370;51.986;4.666;2022-07-06T08:57:47;1.17;;;0.25;;
38615;SDS011;24370;51.986;4.666;2022-07-06T09:00:12;2.78;;;0.40;;
38615;SDS011;24370;51.986;4.666;2022-07-06T09:02:40;4.88;;;0.20;;
38615;SDS011;24370;51.986;4.666;2022-07-06T09:05:06;0.85;;;0.30;;
38615;SDS011;24370;51.986;4.666;2022-07-06T09:07:32;0.43;;;0.20;;
38615;SDS011;24370;51.986;4.666;2022-07-06T09:09:58;0.30;;;0.20;;
38615;SDS011;24370;51.986;4.666;2022-07-06T09:12:28;1.52;;;0.20;;
38615;SDS011;24370;51.986;4.666;2022-07-06T09:14:57;1.95;;;0.38;;
38615;SDS011;24370;51.986;4.666;2022-07-06T09:17:27;0.35;;;0.25;;
38615;SDS011;24370;51.986;4.666;2022-07-06T09:19:53;2.42;;;0.20;;
38615;SDS011;24370;51.986;4.666;2022-07-06T09:22:29;1.38;;;0.30;;
38615;SDS011;24370;51.986;4.666;2022-07-06T09:25:17;0.90;;;0.40;;
38615;SDS011;24370;51.986;4.666;2022-07-06T09:27:42;0.10;;;0.10;;
38615;SDS011;24370;51.986;4.666;2022-07-06T09:30:15;2.20;;;0.20;;
38615;SDS011;24370;51.986;4.666;2022-07-06T09:32:41;0.70;;;0.47;;
38615;SDS011;24370;51.986;4.666;2022-07-06T09:35:18;1.63;;;0.30;;
38615;SDS011;24370;51.986;4.666;2022-07-06T09:37:47;2.08;;;0.30;;
38615;SDS011;24370;51.986;4.666;2022-07-06T09:40:24;3.60;;;0.30;;
38615;SDS011;24370;51.986;4.666;2022-07-06T09:42:49;1.48;;;0.25;;
38615;SDS011;24370;51.986;4.666;2022-07-06T09:45:19;0.68;;;0.20;;
38615;SDS011;24370;51.986;4.666;2022-07-06T09:47:46;1.20;;;0.40;;
38615;SDS011;24370;51.986;4.666;2022-07-06T09:50:14;2.53;;;0.30;;
38615;SDS011;24370;51.986;4.666;2022-07-06T09:52:40;1.90;;;0.40;;
38615;SDS011;24370;51.986;4.666;2022-07-06T09:55:06;1.17;;;0.30;;
38615;SDS011;24370;51.986;4.666;2022-07-06T09:57:51;0.57;;;0.22;;
38615;SDS011;24370;51.986;4.666;2022-07-06T10:00:18;1.88;;;0.55;;
38615;SDS011;24370;51.986;4.666;2022-07-06T10:02:44;0.68;;;0.30;;
38615;SDS011;24370;51.986;4.666;2022-07-06T10:05:12;3.20;;;0.50;;
38615;SDS011;24370;51.986;4.666;2022-07-06T10:07:38;1.92;;;0.57;;
38615;SDS011;24370;51.986;4.666;2022-07-06T10:10:04;1.02;;;0.40;;
38615;SDS011;24370;51.986;4.666;2022-07-06T10:12:30;1.67;;;0.30;;
38615;SDS011;24370;51.986;4.666;2022-07-06T10:14:56;2.58;;;0.57;;
38615;SDS011;24370;51.986;4.666;2022-07-06T10:17:22;0.50;;;0.30;;
38615;SDS011;24370;51.986;4.666;2022-07-06T10:19:48;2.42;;;0.55;;
38615;SDS011;24370;51.986;4.666;2022-07-06T10:22:15;0.73;;;0.47;;
38615;SDS011;24370;51.986;4.666;2022-07-06T10:24:43;0.45;;;0.30;;
38615;SDS011;24370;51.986;4.666;2022-07-06T10:27:09;1.02;;;0.40;;
38615;SDS011;24370;51.986;4.666;2022-07-06T10:29:35;2.83;;;0.63;;
38615;SDS011;24370;51.986;4.666;2022-07-06T10:32:01;1.45;;;0.38;;
38615;SDS011;24370;51.986;4.666;2022-07-06T10:34:27;3.13;;;0.30;;
38615;SDS011;24370;51.986;4.666;2022-07-06T10:36:53;0.20;;;0.20;;
38615;SDS011;24370;51.986;4.666;2022-07-06T10:39:36;2.33;;;0.50;;
38615;SDS011;24370;51.986;4.666;2022-07-06T10:45:06;3.55;;;0.88;;
38615;SDS011;24370;51.986;4.666;2022-07-06T10:47:31;0.75;;;0.50;;
38615;SDS011;24370;51.986;4.666;2022-07-06T10:50:00;1.63;;;0.50;;
38615;SDS011;24370;51.986;4.666;2022-07-06T10:57:56;2.03;;;0.55;;
38615;SDS011;24370;51.986;4.666;2022-07-06T11:00:21;1.42;;;0.60;;
38615;SDS011;24370;51.986;4.666;2022-07-06T11:02:47;1.08;;;0.38;;
38615;SDS011;24370;51.986;4.666;2022-07-06T11:05:13;2.13;;;0.70;;
38615;SDS011;24370;51.986;4.666;2022-07-06T11:08:08;4.25;;;0.60;;
38615;SDS011;24370;51.986;4.666;2022-07-06T11:10:47;0.52;;;0.52;;
38615;SDS011;24370;51.986;4.666;2022-07-06T11:13:26;1.67;;;0.47;;
38615;SDS011;24370;51.986;4.666;2022-07-06T11:15:54;5.03;;;0.60;;
38615;SDS011;24370;51.986;4.666;2022-07-06T11:18:38;2.65;;;0.50;;
38615;SDS011;24370;51.986;4.666;2022-07-06T11:23:41;1.85;;;0.60;;
38615;SDS011;24370;51.986;4.666;2022-07-06T11:26:07;4.30;;;0.50;;
38615;SDS011;24370;51.986;4.666;2022-07-06T11:28:35;1.98;;;0.63;;
38615;SDS011;24370;51.986;4.666;2022-07-06T11:31:01;1.77;;;0.60;;
38615;SDS011;24370;51.986;4.666;2022-07-06T11:33:28;6.32;;;0.63;;
38615;SDS011;24370;51.986;4.666;2022-07-06T11:36:16;1.85;;;0.55;;
38615;SDS011;24370;51.986;4.666;2022-07-06T11:38:46;1.45;;;0.40;;
38615;SDS011;24370;51.986;4.666;2022-07-06T11:41:12;0.70;;;0.30;;
38615;SDS011;24370;51.986;4.666;2022-07-06T11:43:42;2.92;;;0.65;;
38615;SDS011;24370;51.986;4.666;2022-07-06T11:46:26;1.40;;;0.50;;
38615;SDS011;24370;51.986;4.666;2022-07-06T11:48:54;3.20;;;0.52;;
38615;SDS011;24370;51.986;4.666;2022-07-06T11:51:25;3.25;;;0.57;;
38615;SDS011;24370;51.986;4.666;2022-07-06T11:53:54;0.45;;;0.35;;
38615;SDS011;24370;51.986;4.666;2022-07-06T11:56:27;1.25;;;0.60;;
38615;SDS011;24370;51.986;4.666;2022-07-06T11:58:54;0.85;;;0.52;;
38615;SDS011;24370;51.986;4.666;2022-07-06T12:01:24;2.33;;;0.60;;
38615;SDS011;24370;51.986;4.666;2022-07-06T12:03:52;1.45;;;0.50;;
38615;SDS011;24370;51.986;4.666;2022-07-06T12:06:22;4.18;;;0.90;;
38615;SDS011;24370;51.986;4.666;2022-07-06T12:08:50;1.48;;;0.70;;
38615;SDS011;24370;51.986;4.666;2022-07-06T12:13:53;1.58;;;0.60;;
38615;SDS011;24370;51.986;4.666;2022-07-06T12:16:27;2.38;;;0.60;;
38615;SDS011;24370;51.986;4.666;2022-07-06T12:18:54;1.63;;;0.73;;
38615;SDS011;24370;51.986;4.666;2022-07-06T12:21:20;1.75;;;0.60;;
38615;SDS011;24370;51.986;4.666;2022-07-06T12:23:49;1.35;;;0.60;;
38615;SDS011;24370;51.986;4.666;2022-07-06T12:26:18;1.58;;;0.60;;
38615;SDS011;24370;51.986;4.666;2022-07-06T12:28:45;5.18;;;0.75;;
38615;SDS011;24370;51.986;4.666;2022-07-06T12:34:23;6.82;;;1.00;;
38615;SDS011;24370;51.986;4.666;2022-07-06T12:36:51;7.32;;;0.70;;
38615;SDS011;24370;51.986;4.666;2022-07-06T12:39:20;3.60;;;0.75;;
38615;SDS011;24370;51.986;4.666;2022-07-06T12:41:48;1.38;;;1.05;;
38615;SDS011;24370;51.986;4.666;2022-07-06T12:44:13;3.08;;;1.00;;
38615;SDS011;24370;51.986;4.666;2022-07-06T12:46:42;1.45;;;0.68;;
38615;SDS011;24370;51.986;4.666;2022-07-06T12:49:18;1.70;;;0.93;;
38615;SDS011;24370;51.986;4.666;2022-07-06T12:54:20;5.10;;;0.82;;
38615;SDS011;24370;51.986;4.666;2022-07-06T12:56:56;2.10;;;0.60;;
38615;SDS011;24370;51.986;4.666;2022-07-06T12:59:22;2.30;;;0.82;;
38615;SDS011;24370;51.986;4.666;2022-07-06T13:01:48;0.85;;;0.50;;
38615;SDS011;24370;51.986;4.666;2022-07-06T13:04:15;2.67;;;0.70;;
38615;SDS011;24370;51.986;4.666;2022-07-06T13:06:41;4.70;;;1.20;;
38615;SDS011;24370;51.986;4.666;2022-07-06T13:09:06;3.22;;;0.90;;
38615;SDS011;24370;51.986;4.666;2022-07-06T13:11:31;1.73;;;0.63;;
38615;SDS011;24370;51.986;4.666;2022-07-06T13:13:58;2.78;;;0.77;;
38615;SDS011;24370;51.986;4.666;2022-07-06T13:16:24;6.18;;;0.82;;
38615;SDS011;24370;51.986;4.666;2022-07-06T13:18:55;2.00;;;0.80;;
38615;SDS011;24370;51.986;4.666;2022-07-06T13:21:20;2.78;;;0.98;;
38615;SDS011;24370;51.986;4.666;2022-07-06T13:23:46;2.55;;;0.80;;
38615;SDS011;24370;51.986;4.666;2022-07-06T13:26:11;3.22;;;0.85;;
38615;SDS011;24370;51.986;4.666;2022-07-06T13:28:36;2.60;;;0.80;;
38615;SDS011;24370;51.986;4.666;2022-07-06T13:31:02;1.95;;;1.00;;
38615;SDS011;24370;51.986;4.666;2022-07-06T13:33:27;4.05;;;0.60;;
38615;SDS011;24370;51.986;4.666;2022-07-06T13:35:52;4.72;;;0.98;;
38615;SDS011;24370;51.986;4.666;2022-07-06T13:38:18;4.03;;;0.90;;
38615;SDS011;24370;51.986;4.666;2022-07-06T13:40:43;4.13;;;0.57;;
38615;SDS011;24370;51.986;4.666;2022-07-06T13:43:08;4.70;;;0.80;;
38615;SDS011;24370;51.986;4.666;2022-07-06T13:45:34;4.07;;;1.25;;
38615;SDS011;24370;51.986;4.666;2022-07-06T13:47:59;2.13;;;0.80;;
38615;SDS011;24370;51.986;4.666;2022-07-06T13:50:24;4.13;;;0.85;;
38615;SDS011;24370;51.986;4.666;2022-07-06T13:52:52;3.80;;;1.17;;
38615;SDS011;24370;51.986;4.666;2022-07-06T13:55:17;5.95;;;1.67;;
38615;SDS011;24370;51.986;4.666;2022-07-06T13:57:43;5.05;;;1.20;;
38615;SDS011;24370;51.986;4.666;2022-07-06T14:00:08;3.88;;;1.05;;
38615;SDS011;24370;51.986;4.666;2022-07-06T14:02:34;3.60;;;1.20;;
38615;SDS011;24370;51.986;4.666;2022-07-06T14:04:59;3.15;;;1.00;;
38615;SDS011;24370;51.986;4.666;2022-07-06T14:07:25;3.22;;;0.98;;
38615;SDS011;24370;51.986;4.666;2022-07-06T14:09:50;3.25;;;1.05;;
38615;SDS011;24370;51.986;4.666;2022-07-06T14:12:16;2.10;;;1.10;;
38615;SDS011;24370;51.986;4.666;2022-07-06T14:14:42;3.50;;;1.00;;
38615;SDS011;24370;51.986;4.666;2022-07-06T14:17:07;3.50;;;1.00;;
38615;SDS011;24370;51.986;4.666;2022-07-06T14:19:32;4.18;;;1.10;;
38615;SDS011;24370;51.986;4.666;2022-07-06T14:21:58;3.70;;;1.20;;
38615;SDS011;24370;51.986;4.666;2022-07-06T14:24:23;2.55;;;1.20;;
38615;SDS011;24370;51.986;4.666;2022-07-06T14:26:48;2.00;;;1.10;;
38615;SDS011;24370;51.986;4.666;2022-07-06T14:29:14;5.68;;;1.48;;
38615;SDS011;24370;51.986;4.666;2022-07-06T14:31:39;2.33;;;1.30;;
38615;SDS011;24370;51.986;4.666;2022-07-06T14:34:04;7.55;;;1.70;;
38615;SDS011;24370;51.986;4.666;2022-07-06T14:36:30;9.00;;;1.73;;
38615;SDS011;24370;51.986;4.666;2022-07-06T14:38:55;2.85;;;2.05;;
38615;SDS011;24370;51.986;4.666;2022-07-06T14:41:20;6.18;;;1.70;;
38615;SDS011;24370;51.986;4.666;2022-07-06T14:43:46;7.22;;;1.65;;
38615;SDS011;24370;51.986;4.666;2022-07-06T14:46:12;4.55;;;1.73;;
38615;SDS011;24370;51.986;4.666;2022-07-06T14:48:37;4.40;;;1.70;;
38615;SDS011;24370;51.986;4.666;2022-07-06T14:51:02;5.55;;;1.63;;
38615;SDS011;24370;51.986;4.666;2022-07-06T14:53:28;5.60;;;1.98;;
38615;SDS011;24370;51.986;4.666;2022-07-06T14:55:53;6.75;;;2.25;;
38615;SDS011;24370;51.986;4.666;2022-07-06T14:58:19;9.07;;;1.70;;
38615;SDS011;24370;51.986;4.666;2022-07-06T15:00:45;6.05;;;1.80;;
38615;SDS011;24370;51.986;4.666;2022-07-06T15:03:11;2.90;;;1.45;;
38615;SDS011;24370;51.986;4.666;2022-07-06T15:05:36;3.20;;;1.55;;
38615;SDS011;24370;51.986;4.666;2022-07-06T15:08:02;2.78;;;1.65;;
38615;SDS011;24370;51.986;4.666;2022-07-06T15:10:27;4.90;;;1.45;;